sensor_id;sensor_type;location;lat;lon;timestamp;P1;durP1;ratioP1;P2;durP2;ratioP2
58528;SDS011;44322;52.968;5.816;2022-08-03T00:00:01;5.63;;;2.30;;
58528;SDS011;44322;52.968;5.816;2022-08-03T00:02:37;5.60;;;2.30;;
58528;SDS011;44322;52.968;5.816;2022-08-03T00:05:03;7.28;;;2.60;;
58528;SDS011;44322;52.968;5.816;2022-08-03T00:07:32;8.05;;;2.15;;
58528;SDS011;44322;52.968;5.816;2022-08-03T00:09:58;6.80;;;2.53;;
58528;SDS011;44322;52.968;5.816;2022-08-03T00:12:24;12.43;;;3.20;;
58528;SDS011;44322;52.968;5.816;2022-08-03T00:14:50;6.38;;;2.58;;
58528;SDS011;44322;52.968;5.816;2022-08-03T00:17:16;7.53;;;2.65;;
58528;SDS011;44322;52.968;5.816;2022-08-03T00:19:41;6.05;;;2.47;;
58528;SDS011;44322;52.968;5.816;2022-08-03T00:22:08;8.63;;;2.55;;
58528;SDS011;44322;52.968;5.816;2022-08-03T00:24:34;5.55;;;2.28;;
58528;SDS011;44322;52.968;5.816;2022-08-03T00:27:00;9.07;;;2.38;;
58528;SDS011;44322;52.968;5.816;2022-08-03T00:29:26;5.88;;;2.50;;
58528;SDS011;44322;52.968;5.816;2022-08-03T00:31:52;7.68;;;2.47;;
58528;SDS011;44322;52.968;5.816;2022-08-03T00:34:18;4.57;;;2.20;;
58528;SDS011;44322;52.968;5.816;2022-08-03T00:36:44;4.75;;;2.05;;
58528;SDS011;44322;52.968;5.816;2022-08-03T00:39:09;8.13;;;2.63;;
58528;SDS011;44322;52.968;5.816;2022-08-03T00:41:35;4.13;;;2.33;;
58528;SDS011;44322;52.968;5.816;2022-08-03T00:44:01;6.82;;;2.58;;
58528;SDS011;44322;52.968;5.816;2022-08-03T00:46:27;6.05;;;2.60;;
58528;SDS011;44322;52.968;5.816;2022-08-03T00:48:53;7.75;;;2.47;;
58528;SDS011;44322;52.968;5.816;2022-08-03T00:51:19;5.53;;;2.60;;
58528;SDS011;44322;52.968;5.816;2022-08-03T00:53:46;8.05;;;2.63;;
58528;SDS011;44322;52.968;5.816;2022-08-03T00:56:12;6.35;;;2.72;;
58528;SDS011;44322;52.968;5.816;2022-08-03T00:58:39;4.28;;;2.45;;
58528;SDS011;44322;52.968;5.816;2022-08-03T01:01:05;7.78;;;2.70;;
58528;SDS011;44322;52.968;5.816;2022-08-03T01:03:31;7.40;;;2.97;;
58528;SDS011;44322;52.968;5.816;2022-08-03T01:05:59;9.55;;;2.63;;
58528;SDS011;44322;52.968;5.816;2022-08-03T01:08:51;6.47;;;2.90;;
58528;SDS011;44322;52.968;5.816;2022-08-03T01:14:15;7.45;;;2.60;;
58528;SDS011;44322;52.968;5.816;2022-08-03T01:16:58;8.27;;;2.60;;
58528;SDS011;44322;52.968;5.816;2022-08-03T01:19:42;8.73;;;2.80;;
58528;SDS011;44322;52.968;5.816;2022-08-03T01:28:04;5.35;;;2.75;;
58528;SDS011;44322;52.968;5.816;2022-08-03T01:30:36;8.90;;;2.75;;
58528;SDS011;44322;52.968;5.816;2022-08-03T01:33:16;8.00;;;2.63;;
58528;SDS011;44322;52.968;5.816;2022-08-03T01:35:53;7.07;;;2.65;;
58528;SDS011;44322;52.968;5.816;2022-08-03T01:38:24;7.38;;;2.40;;
58528;SDS011;44322;52.968;5.816;2022-08-03T01:40:56;7.57;;;2.60;;
58528;SDS011;44322;52.968;5.816;2022-08-03T01:43:26;5.45;;;2.25;;
58528;SDS011;44322;52.968;5.816;2022-08-03T01:45:55;7.00;;;2.60;;
58528;SDS011;44322;52.968;5.816;2022-08-03T01:48:22;5.97;;;2.10;;
58528;SDS011;44322;52.968;5.816;2022-08-03T01:50:50;6.68;;;2.47;;
58528;SDS011;44322;52.968;5.816;2022-08-03T01:53:17;4.80;;;2.22;;
58528;SDS011;44322;52.968;5.816;2022-08-03T01:55:45;6.40;;;2.50;;
58528;SDS011;44322;52.968;5.816;2022-08-03T01:58:14;5.43;;;2.30;;
58528;SDS011;44322;52.968;5.816;2022-08-03T02:00:42;5.60;;;2.30;;
58528;SDS011;44322;52.968;5.816;2022-08-03T02:03:08;7.25;;;2.40;;
58528;SDS011;44322;52.968;5.816;2022-08-03T02:05:42;5.30;;;2.38;;
58528;SDS011;44322;52.968;5.816;2022-08-03T02:08:11;5.47;;;2.80;;
58528;SDS011;44322;52.968;5.816;2022-08-03T02:10:38;11.18;;;2.60;;
58528;SDS011;44322;52.968;5.816;2022-08-03T02:13:07;5.82;;;2.40;;
58528;SDS011;44322;52.968;5.816;2022-08-03T02:15:34;7.57;;;2.65;;
58528;SDS011;44322;52.968;5.816;2022-08-03T02:18:02;8.98;;;2.53;;
58528;SDS011;44322;52.968;5.816;2022-08-03T02:20:32;6.28;;;2.30;;
58528;SDS011;44322;52.968;5.816;2022-08-03T02:23:00;8.20;;;2.83;;
58528;SDS011;44322;52.968;5.816;2022-08-03T02:25:26;6.57;;;2.40;;
58528;SDS011;44322;52.968;5.816;2022-08-03T02:32:53;9.25;;;2.70;;
58528;SDS011;44322;52.968;5.816;2022-08-03T02:35:21;5.82;;;2.33;;
58528;SDS011;44322;52.968;5.816;2022-08-03T02:37:55;6.25;;;2.60;;
58528;SDS011;44322;52.968;5.816;2022-08-03T02:40:25;7.85;;;2.63;;
58528;SDS011;44322;52.968;5.816;2022-08-03T02:42:54;8.35;;;2.30;;
58528;SDS011;44322;52.968;5.816;2022-08-03T02:45:27;9.90;;;3.00;;
58528;SDS011;44322;52.968;5.816;2022-08-03T02:47:57;8.30;;;2.55;;
58528;SDS011;44322;52.968;5.816;2022-08-03T02:50:26;6.25;;;2.47;;
58528;SDS011;44322;52.968;5.816;2022-08-03T02:55:21;9.70;;;2.70;;
58528;SDS011;44322;52.968;5.816;2022-08-03T02:57:48;5.97;;;2.83;;
58528;SDS011;44322;52.968;5.816;2022-08-03T03:00:15;6.97;;;2.63;;
58528;SDS011;44322;52.968;5.816;2022-08-03T03:02:42;8.80;;;3.00;;
58528;SDS011;44322;52.968;5.816;2022-08-03T03:05:08;12.65;;;3.08;;
58528;SDS011;44322;52.968;5.816;2022-08-03T03:07:36;12.93;;;2.97;;
58528;SDS011;44322;52.968;5.816;2022-08-03T03:10:03;10.32;;;2.90;;
58528;SDS011;44322;52.968;5.816;2022-08-03T03:12:30;12.88;;;3.00;;
58528;SDS011;44322;52.968;5.816;2022-08-03T03:14:57;7.72;;;2.58;;
58528;SDS011;44322;52.968;5.816;2022-08-03T03:17:23;10.60;;;2.90;;
58528;SDS011;44322;52.968;5.816;2022-08-03T03:19:50;6.93;;;2.80;;
58528;SDS011;44322;52.968;5.816;2022-08-03T03:22:16;8.35;;;2.75;;
58528;SDS011;44322;52.968;5.816;2022-08-03T03:24:43;11.20;;;3.10;;
58528;SDS011;44322;52.968;5.816;2022-08-03T03:29:38;9.60;;;2.60;;
58528;SDS011;44322;52.968;5.816;2022-08-03T03:32:05;8.75;;;3.25;;
58528;SDS011;44322;52.968;5.816;2022-08-03T03:34:31;8.43;;;3.08;;
58528;SDS011;44322;52.968;5.816;2022-08-03T03:36:57;10.68;;;2.90;;
58528;SDS011;44322;52.968;5.816;2022-08-03T03:39:23;10.98;;;3.03;;
58528;SDS011;44322;52.968;5.816;2022-08-03T03:41:49;7.88;;;3.00;;
58528;SDS011;44322;52.968;5.816;2022-08-03T03:44:15;7.93;;;3.00;;
58528;SDS011;44322;52.968;5.816;2022-08-03T03:46:41;8.48;;;2.63;;
58528;SDS011;44322;52.968;5.816;2022-08-03T03:49:07;6.97;;;2.90;;
58528;SDS011;44322;52.968;5.816;2022-08-03T03:51:33;10.15;;;2.90;;
58528;SDS011;44322;52.968;5.816;2022-08-03T03:54:00;9.23;;;3.97;;
58528;SDS011;44322;52.968;5.816;2022-08-03T03:56:27;9.02;;;2.75;;
58528;SDS011;44322;52.968;5.816;2022-08-03T03:58:53;9.68;;;3.55;;
58528;SDS011;44322;52.968;5.816;2022-08-03T04:01:20;13.00;;;3.70;;
58528;SDS011;44322;52.968;5.816;2022-08-03T04:03:46;6.60;;;3.38;;
58528;SDS011;44322;52.968;5.816;2022-08-03T04:06:12;11.02;;;3.38;;
58528;SDS011;44322;52.968;5.816;2022-08-03T04:08:57;8.63;;;3.03;;
58528;SDS011;44322;52.968;5.816;2022-08-03T04:11:48;11.52;;;2.90;;
58528;SDS011;44322;52.968;5.816;2022-08-03T04:14:28;7.07;;;3.13;;
58528;SDS011;44322;52.968;5.816;2022-08-03T04:17:00;9.20;;;3.03;;
58528;SDS011;44322;52.968;5.816;2022-08-03T04:19:33;11.25;;;3.55;;
58528;SDS011;44322;52.968;5.816;2022-08-03T04:22:08;9.48;;;2.88;;
58528;SDS011;44322;52.968;5.816;2022-08-03T04:24:43;11.48;;;3.60;;
58528;SDS011;44322;52.968;5.816;2022-08-03T04:27:14;11.10;;;3.10;;
58528;SDS011;44322;52.968;5.816;2022-08-03T04:29:45;12.85;;;3.63;;
58528;SDS011;44322;52.968;5.816;2022-08-03T04:32:13;8.55;;;3.05;;
58528;SDS011;44322;52.968;5.816;2022-08-03T04:34:40;8.93;;;2.83;;
58528;SDS011;44322;52.968;5.816;2022-08-03T04:37:10;10.60;;;3.10;;
58528;SDS011;44322;52.968;5.816;2022-08-03T04:39:37;8.75;;;3.03;;
58528;SDS011;44322;52.968;5.816;2022-08-03T04:42:06;8.60;;;3.20;;
58528;SDS011;44322;52.968;5.816;2022-08-03T04:44:36;9.70;;;3.22;;
58528;SDS011;44322;52.968;5.816;2022-08-03T04:47:04;9.27;;;3.25;;
58528;SDS011;44322;52.968;5.816;2022-08-03T04:49:31;10.90;;;3.60;;
58528;SDS011;44322;52.968;5.816;2022-08-03T04:51:57;10.75;;;3.45;;
58528;SDS011;44322;52.968;5.816;2022-08-03T04:54:23;10.23;;;3.33;;
58528;SDS011;44322;52.968;5.816;2022-08-03T04:56:49;11.02;;;3.30;;
58528;SDS011;44322;52.968;5.816;2022-08-03T04:59:14;10.20;;;3.63;;
58528;SDS011;44322;52.968;5.816;2022-08-03T05:01:42;11.27;;;3.60;;
58528;SDS011;44322;52.968;5.816;2022-08-03T05:04:07;13.65;;;3.35;;
58528;SDS011;44322;52.968;5.816;2022-08-03T05:06:33;13.48;;;3.75;;
58528;SDS011;44322;52.968;5.816;2022-08-03T05:08:59;10.25;;;3.75;;
58528;SDS011;44322;52.968;5.816;2022-08-03T05:11:25;9.80;;;3.33;;
58528;SDS011;44322;52.968;5.816;2022-08-03T05:13:51;9.43;;;3.33;;
58528;SDS011;44322;52.968;5.816;2022-08-03T05:16:17;10.77;;;3.80;;
58528;SDS011;44322;52.968;5.816;2022-08-03T05:18:43;8.50;;;3.20;;
58528;SDS011;44322;52.968;5.816;2022-08-03T05:21:10;10.00;;;3.45;;
58528;SDS011;44322;52.968;5.816;2022-08-03T05:23:38;12.10;;;3.92;;
58528;SDS011;44322;52.968;5.816;2022-08-03T05:26:04;8.82;;;3.40;;
58528;SDS011;44322;52.968;5.816;2022-08-03T05:28:30;7.43;;;3.60;;
58528;SDS011;44322;52.968;5.816;2022-08-03T05:30:56;13.50;;;3.60;;
58528;SDS011;44322;52.968;5.816;2022-08-03T05:33:21;13.27;;;3.25;;
58528;SDS011;44322;52.968;5.816;2022-08-03T05:35:47;12.88;;;3.55;;
58528;SDS011;44322;52.968;5.816;2022-08-03T05:38:13;14.00;;;3.65;;
58528;SDS011;44322;52.968;5.816;2022-08-03T05:40:39;15.65;;;3.60;;
58528;SDS011;44322;52.968;5.816;2022-08-03T05:43:05;8.27;;;3.28;;
58528;SDS011;44322;52.968;5.816;2022-08-03T05:45:30;11.60;;;3.75;;
58528;SDS011;44322;52.968;5.816;2022-08-03T05:47:56;13.52;;;3.58;;
58528;SDS011;44322;52.968;5.816;2022-08-03T05:50:22;10.40;;;3.40;;
58528;SDS011;44322;52.968;5.816;2022-08-03T05:52:48;11.00;;;3.80;;
58528;SDS011;44322;52.968;5.816;2022-08-03T05:55:14;10.77;;;3.67;;
58528;SDS011;44322;52.968;5.816;2022-08-03T05:57:40;13.80;;;3.78;;
58528;SDS011;44322;52.968;5.816;2022-08-03T06:00:07;11.30;;;3.85;;
58528;SDS011;44322;52.968;5.816;2022-08-03T06:02:37;11.45;;;3.85;;
58528;SDS011;44322;52.968;5.816;2022-08-03T06:05:04;14.23;;;4.20;;
58528;SDS011;44322;52.968;5.816;2022-08-03T06:07:30;12.77;;;4.03;;
58528;SDS011;44322;52.968;5.816;2022-08-03T06:09:57;13.90;;;3.33;;
58528;SDS011;44322;52.968;5.816;2022-08-03T06:12:23;11.98;;;3.85;;
58528;SDS011;44322;52.968;5.816;2022-08-03T06:14:49;8.82;;;3.70;;
58528;SDS011;44322;52.968;5.816;2022-08-03T06:17:14;13.73;;;4.75;;
58528;SDS011;44322;52.968;5.816;2022-08-03T06:19:40;13.52;;;4.10;;
58528;SDS011;44322;52.968;5.816;2022-08-03T06:22:06;11.77;;;4.20;;
58528;SDS011;44322;52.968;5.816;2022-08-03T06:24:32;15.63;;;4.75;;
58528;SDS011;44322;52.968;5.816;2022-08-03T06:27:00;14.65;;;4.15;;
58528;SDS011;44322;52.968;5.816;2022-08-03T06:29:25;14.80;;;5.10;;
58528;SDS011;44322;52.968;5.816;2022-08-03T06:31:51;16.58;;;4.60;;
58528;SDS011;44322;52.968;5.816;2022-08-03T06:34:17;12.45;;;4.40;;
58528;SDS011;44322;52.968;5.816;2022-08-03T06:36:43;11.43;;;4.72;;
58528;SDS011;44322;52.968;5.816;2022-08-03T06:39:09;14.77;;;4.68;;
58528;SDS011;44322;52.968;5.816;2022-08-03T06:41:37;16.35;;;6.10;;
58528;SDS011;44322;52.968;5.816;2022-08-03T06:44:06;14.43;;;5.72;;
58528;SDS011;44322;52.968;5.816;2022-08-03T06:46:32;12.77;;;5.18;;
58528;SDS011;44322;52.968;5.816;2022-08-03T06:48:58;12.55;;;5.50;;
58528;SDS011;44322;52.968;5.816;2022-08-03T06:51:23;14.57;;;6.22;;
58528;SDS011;44322;52.968;5.816;2022-08-03T06:53:49;16.58;;;6.40;;
58528;SDS011;44322;52.968;5.816;2022-08-03T06:56:15;20.30;;;6.45;;
58528;SDS011;44322;52.968;5.816;2022-08-03T06:58:41;16.42;;;6.78;;
58528;SDS011;44322;52.968;5.816;2022-08-03T07:01:07;15.23;;;6.63;;
58528;SDS011;44322;52.968;5.816;2022-08-03T07:03:32;16.38;;;6.93;;
58528;SDS011;44322;52.968;5.816;2022-08-03T07:05:58;18.38;;;7.80;;
58528;SDS011;44322;52.968;5.816;2022-08-03T07:08:24;18.42;;;7.80;;
58528;SDS011;44322;52.968;5.816;2022-08-03T07:10:50;17.83;;;8.82;;
58528;SDS011;44322;52.968;5.816;2022-08-03T07:13:16;19.95;;;8.77;;
58528;SDS011;44322;52.968;5.816;2022-08-03T07:15:42;21.77;;;9.02;;
58528;SDS011;44322;52.968;5.816;2022-08-03T07:18:08;17.55;;;9.48;;
58528;SDS011;44322;52.968;5.816;2022-08-03T07:20:34;14.68;;;8.23;;
58528;SDS011;44322;52.968;5.816;2022-08-03T07:22:59;19.13;;;9.70;;
58528;SDS011;44322;52.968;5.816;2022-08-03T07:25:25;18.30;;;9.27;;
58528;SDS011;44322;52.968;5.816;2022-08-03T07:27:51;20.58;;;8.93;;
58528;SDS011;44322;52.968;5.816;2022-08-03T07:30:17;18.45;;;8.73;;
58528;SDS011;44322;52.968;5.816;2022-08-03T07:32:43;16.45;;;9.40;;
58528;SDS011;44322;52.968;5.816;2022-08-03T07:35:09;23.10;;;10.07;;
58528;SDS011;44322;52.968;5.816;2022-08-03T07:37:36;23.73;;;10.35;;
58528;SDS011;44322;52.968;5.816;2022-08-03T07:40:02;22.27;;;11.25;;
58528;SDS011;44322;52.968;5.816;2022-08-03T07:42:29;18.70;;;10.95;;
58528;SDS011;44322;52.968;5.816;2022-08-03T07:44:56;20.83;;;10.23;;
58528;SDS011;44322;52.968;5.816;2022-08-03T07:47:23;22.48;;;10.48;;
58528;SDS011;44322;52.968;5.816;2022-08-03T07:49:52;20.27;;;11.32;;
58528;SDS011;44322;52.968;5.816;2022-08-03T07:52:19;22.13;;;11.55;;
58528;SDS011;44322;52.968;5.816;2022-08-03T07:55:04;20.17;;;12.00;;
58528;SDS011;44322;52.968;5.816;2022-08-03T07:57:31;20.13;;;10.98;;
58528;SDS011;44322;52.968;5.816;2022-08-03T07:59:57;21.27;;;12.50;;
58528;SDS011;44322;52.968;5.816;2022-08-03T08:02:23;23.48;;;12.63;;
58528;SDS011;44322;52.968;5.816;2022-08-03T08:04:49;21.40;;;12.02;;
58528;SDS011;44322;52.968;5.816;2022-08-03T08:07:15;20.55;;;11.88;;
58528;SDS011;44322;52.968;5.816;2022-08-03T08:09:41;25.15;;;13.70;;
58528;SDS011;44322;52.968;5.816;2022-08-03T08:12:07;25.25;;;13.95;;
58528;SDS011;44322;52.968;5.816;2022-08-03T08:14:34;24.75;;;13.35;;
58528;SDS011;44322;52.968;5.816;2022-08-03T08:17:00;25.48;;;13.27;;
58528;SDS011;44322;52.968;5.816;2022-08-03T08:19:26;24.27;;;14.25;;
58528;SDS011;44322;52.968;5.816;2022-08-03T08:21:52;21.02;;;13.65;;
58528;SDS011;44322;52.968;5.816;2022-08-03T08:24:18;21.85;;;13.98;;
58528;SDS011;44322;52.968;5.816;2022-08-03T08:26:44;23.27;;;13.30;;
58528;SDS011;44322;52.968;5.816;2022-08-03T08:29:09;20.80;;;13.20;;
58528;SDS011;44322;52.968;5.816;2022-08-03T08:31:36;23.73;;;13.45;;
58528;SDS011;44322;52.968;5.816;2022-08-03T08:34:02;24.08;;;13.95;;
58528;SDS011;44322;52.968;5.816;2022-08-03T08:38:56;22.50;;;13.05;;
58528;SDS011;44322;52.968;5.816;2022-08-03T08:41:22;23.67;;;13.25;;
58528;SDS011;44322;52.968;5.816;2022-08-03T08:43:49;23.77;;;14.35;;
58528;SDS011;44322;52.968;5.816;2022-08-03T08:46:15;23.65;;;12.65;;
58528;SDS011;44322;52.968;5.816;2022-08-03T08:48:47;25.15;;;13.73;;
58528;SDS011;44322;52.968;5.816;2022-08-03T08:51:15;21.27;;;14.20;;
58528;SDS011;44322;52.968;5.816;2022-08-03T08:53:44;20.42;;;13.02;;
58528;SDS011;44322;52.968;5.816;2022-08-03T08:56:15;20.15;;;12.93;;
58528;SDS011;44322;52.968;5.816;2022-08-03T08:58:57;22.98;;;12.90;;
58528;SDS011;44322;52.968;5.816;2022-08-03T09:01:25;20.83;;;12.35;;
58528;SDS011;44322;52.968;5.816;2022-08-03T09:03:51;23.83;;;13.23;;
58528;SDS011;44322;52.968;5.816;2022-08-03T09:06:18;19.52;;;13.27;;
58528;SDS011;44322;52.968;5.816;2022-08-03T09:08:45;25.55;;;13.27;;
58528;SDS011;44322;52.968;5.816;2022-08-03T09:11:11;27.20;;;12.63;;
58528;SDS011;44322;52.968;5.816;2022-08-03T09:13:37;21.38;;;12.88;;
58528;SDS011;44322;52.968;5.816;2022-08-03T09:16:13;23.13;;;12.88;;
58528;SDS011;44322;52.968;5.816;2022-08-03T09:18:44;21.88;;;13.63;;
58528;SDS011;44322;52.968;5.816;2022-08-03T09:23:51;23.95;;;13.05;;
58528;SDS011;44322;52.968;5.816;2022-08-03T09:26:23;22.88;;;13.25;;
58528;SDS011;44322;52.968;5.816;2022-08-03T09:28:58;21.55;;;13.07;;
58528;SDS011;44322;52.968;5.816;2022-08-03T09:31:36;21.08;;;12.65;;
58528;SDS011;44322;52.968;5.816;2022-08-03T09:34:04;24.58;;;13.30;;
58528;SDS011;44322;52.968;5.816;2022-08-03T09:36:42;20.42;;;11.80;;
58528;SDS011;44322;52.968;5.816;2022-08-03T09:39:31;22.42;;;12.27;;
58528;SDS011;44322;52.968;5.816;2022-08-03T09:44:34;21.27;;;12.60;;
58528;SDS011;44322;52.968;5.816;2022-08-03T09:47:02;22.52;;;11.77;;
58528;SDS011;44322;52.968;5.816;2022-08-03T09:49:28;23.95;;;11.90;;
58528;SDS011;44322;52.968;5.816;2022-08-03T09:52:01;26.15;;;11.40;;
58528;SDS011;44322;52.968;5.816;2022-08-03T09:54:38;23.70;;;12.02;;
58528;SDS011;44322;52.968;5.816;2022-08-03T09:57:04;27.67;;;11.37;;
58528;SDS011;44322;52.968;5.816;2022-08-03T09:59:31;23.20;;;11.38;;
58528;SDS011;44322;52.968;5.816;2022-08-03T10:02:01;21.67;;;11.73;;
58528;SDS011;44322;52.968;5.816;2022-08-03T10:04:27;17.88;;;10.30;;
58528;SDS011;44322;52.968;5.816;2022-08-03T10:07:06;20.23;;;10.82;;
58528;SDS011;44322;52.968;5.816;2022-08-03T10:09:33;19.83;;;10.00;;
58528;SDS011;44322;52.968;5.816;2022-08-03T10:12:10;19.60;;;9.95;;
58528;SDS011;44322;52.968;5.816;2022-08-03T10:14:39;20.10;;;10.27;;
58528;SDS011;44322;52.968;5.816;2022-08-03T10:17:08;26.63;;;10.68;;
58528;SDS011;44322;52.968;5.816;2022-08-03T10:19:40;22.35;;;9.57;;
58528;SDS011;44322;52.968;5.816;2022-08-03T10:22:33;18.55;;;9.30;;
58528;SDS011;44322;52.968;5.816;2022-08-03T10:25:10;19.83;;;9.52;;
58528;SDS011;44322;52.968;5.816;2022-08-03T10:35:22;22.05;;;9.13;;
58528;SDS011;44322;52.968;5.816;2022-08-03T10:37:59;15.88;;;8.60;;
58528;SDS011;44322;52.968;5.816;2022-08-03T10:40:32;20.60;;;8.40;;
58528;SDS011;44322;52.968;5.816;2022-08-03T10:43:02;18.00;;;8.27;;
58528;SDS011;44322;52.968;5.816;2022-08-03T10:45:35;21.48;;;8.23;;
58528;SDS011;44322;52.968;5.816;2022-08-03T10:48:06;20.52;;;9.48;;
58528;SDS011;44322;52.968;5.816;2022-08-03T10:50:33;19.67;;;8.88;;
58528;SDS011;44322;52.968;5.816;2022-08-03T10:53:00;21.77;;;8.65;;
58528;SDS011;44322;52.968;5.816;2022-08-03T10:55:44;18.48;;;8.38;;
58528;SDS011;44322;52.968;5.816;2022-08-03T11:01:09;21.20;;;7.60;;
58528;SDS011;44322;52.968;5.816;2022-08-03T11:06:17;21.27;;;6.90;;
58528;SDS011;44322;52.968;5.816;2022-08-03T11:08:48;22.02;;;7.68;;
58528;SDS011;44322;52.968;5.816;2022-08-03T11:14:11;14.93;;;7.07;;
58528;SDS011;44322;52.968;5.816;2022-08-03T11:16:49;18.65;;;6.05;;
58528;SDS011;44322;52.968;5.816;2022-08-03T11:19:43;17.90;;;6.88;;
58528;SDS011;44322;52.968;5.816;2022-08-03T11:22:19;26.27;;;7.13;;
58528;SDS011;44322;52.968;5.816;2022-08-03T11:38:19;15.20;;;5.10;;
58528;SDS011;44322;52.968;5.816;2022-08-03T11:40:52;17.73;;;6.30;;
58528;SDS011;44322;52.968;5.816;2022-08-03T11:46:06;20.80;;;6.05;;
58528;SDS011;44322;52.968;5.816;2022-08-03T11:48:42;23.85;;;6.55;;
58528;SDS011;44322;52.968;5.816;2022-08-03T11:54:03;17.98;;;6.80;;
58528;SDS011;44322;52.968;5.816;2022-08-03T11:56:43;17.90;;;5.32;;
58528;SDS011;44322;52.968;5.816;2022-08-03T11:59:19;17.13;;;5.90;;
58528;SDS011;44322;52.968;5.816;2022-08-03T12:02:06;18.85;;;5.57;;
58528;SDS011;44322;52.968;5.816;2022-08-03T12:07:30;15.68;;;6.35;;
58528;SDS011;44322;52.968;5.816;2022-08-03T12:10:06;20.13;;;7.27;;
58528;SDS011;44322;52.968;5.816;2022-08-03T12:12:39;16.98;;;6.15;;
58528;SDS011;44322;52.968;5.816;2022-08-03T12:15:07;22.25;;;7.55;;
58528;SDS011;44322;52.968;5.816;2022-08-03T12:17:37;19.70;;;6.72;;
58528;SDS011;44322;52.968;5.816;2022-08-03T12:20:06;16.27;;;7.78;;
58528;SDS011;44322;52.968;5.816;2022-08-03T12:22:38;19.05;;;8.82;;
58528;SDS011;44322;52.968;5.816;2022-08-03T12:25:08;18.92;;;7.35;;
58528;SDS011;44322;52.968;5.816;2022-08-03T12:27:45;20.38;;;7.35;;
58528;SDS011;44322;52.968;5.816;2022-08-03T12:30:11;14.60;;;5.90;;
58528;SDS011;44322;52.968;5.816;2022-08-03T12:32:37;20.38;;;6.95;;
58528;SDS011;44322;52.968;5.816;2022-08-03T12:35:03;17.30;;;6.83;;
58528;SDS011;44322;52.968;5.816;2022-08-03T12:37:30;21.10;;;6.28;;
58528;SDS011;44322;52.968;5.816;2022-08-03T12:39:59;18.47;;;7.23;;
58528;SDS011;44322;52.968;5.816;2022-08-03T12:42:36;18.00;;;6.57;;
58528;SDS011;44322;52.968;5.816;2022-08-03T12:45:19;20.80;;;8.32;;
58528;SDS011;44322;52.968;5.816;2022-08-03T12:50:25;17.48;;;7.53;;
58528;SDS011;44322;52.968;5.816;2022-08-03T12:52:56;17.23;;;7.38;;
58528;SDS011;44322;52.968;5.816;2022-08-03T12:55:22;16.05;;;6.10;;
58528;SDS011;44322;52.968;5.816;2022-08-03T13:00:16;16.17;;;6.25;;
58528;SDS011;44322;52.968;5.816;2022-08-03T13:02:43;17.08;;;6.13;;
58528;SDS011;44322;52.968;5.816;2022-08-03T13:05:09;19.15;;;6.30;;
58528;SDS011;44322;52.968;5.816;2022-08-03T13:07:40;14.18;;;6.70;;
58528;SDS011;44322;52.968;5.816;2022-08-03T13:10:07;16.00;;;7.55;;
58528;SDS011;44322;52.968;5.816;2022-08-03T13:15:09;15.40;;;5.85;;
58528;SDS011;44322;52.968;5.816;2022-08-03T13:17:35;16.35;;;6.60;;
58528;SDS011;44322;52.968;5.816;2022-08-03T13:20:01;17.97;;;6.30;;
58528;SDS011;44322;52.968;5.816;2022-08-03T13:22:27;18.95;;;8.25;;
58528;SDS011;44322;52.968;5.816;2022-08-03T13:24:54;20.23;;;6.55;;
58528;SDS011;44322;52.968;5.816;2022-08-03T13:27:21;20.42;;;7.95;;
58528;SDS011;44322;52.968;5.816;2022-08-03T13:29:48;17.90;;;6.65;;
58528;SDS011;44322;52.968;5.816;2022-08-03T13:32:14;14.60;;;6.38;;
58528;SDS011;44322;52.968;5.816;2022-08-03T13:34:40;16.77;;;6.50;;
58528;SDS011;44322;52.968;5.816;2022-08-03T13:37:06;15.32;;;6.72;;
58528;SDS011;44322;52.968;5.816;2022-08-03T13:39:32;16.52;;;6.57;;
58528;SDS011;44322;52.968;5.816;2022-08-03T13:41:58;14.43;;;7.17;;
58528;SDS011;44322;52.968;5.816;2022-08-03T13:44:24;14.90;;;6.40;;
58528;SDS011;44322;52.968;5.816;2022-08-03T13:46:49;16.30;;;6.85;;
58528;SDS011;44322;52.968;5.816;2022-08-03T13:49:15;13.43;;;5.68;;
58528;SDS011;44322;52.968;5.816;2022-08-03T13:51:41;14.90;;;6.88;;
58528;SDS011;44322;52.968;5.816;2022-08-03T13:54:07;14.55;;;6.13;;
58528;SDS011;44322;52.968;5.816;2022-08-03T13:56:33;15.57;;;7.30;;
58528;SDS011;44322;52.968;5.816;2022-08-03T13:58:59;15.07;;;6.65;;
58528;SDS011;44322;52.968;5.816;2022-08-03T14:01:25;17.35;;;7.15;;
58528;SDS011;44322;52.968;5.816;2022-08-03T14:03:51;13.90;;;6.07;;
58528;SDS011;44322;52.968;5.816;2022-08-03T14:06:22;12.75;;;7.00;;
58528;SDS011;44322;52.968;5.816;2022-08-03T14:08:49;15.52;;;7.63;;
58528;SDS011;44322;52.968;5.816;2022-08-03T14:11:15;16.23;;;7.30;;
58528;SDS011;44322;52.968;5.816;2022-08-03T14:13:42;15.80;;;6.60;;
58528;SDS011;44322;52.968;5.816;2022-08-03T14:16:08;18.08;;;6.90;;
58528;SDS011;44322;52.968;5.816;2022-08-03T14:18:34;12.80;;;6.80;;
58528;SDS011;44322;52.968;5.816;2022-08-03T14:21:01;14.32;;;6.30;;
58528;SDS011;44322;52.968;5.816;2022-08-03T14:23:28;12.60;;;6.43;;
58528;SDS011;44322;52.968;5.816;2022-08-03T14:25:54;12.25;;;5.80;;
58528;SDS011;44322;52.968;5.816;2022-08-03T14:28:20;14.30;;;6.47;;
58528;SDS011;44322;52.968;5.816;2022-08-03T14:30:47;13.15;;;5.80;;
58528;SDS011;44322;52.968;5.816;2022-08-03T14:33:14;14.13;;;6.28;;
58528;SDS011;44322;52.968;5.816;2022-08-03T14:35:40;10.30;;;5.80;;
58528;SDS011;44322;52.968;5.816;2022-08-03T14:38:06;16.37;;;5.80;;
58528;SDS011;44322;52.968;5.816;2022-08-03T14:40:31;13.80;;;5.57;;
58528;SDS011;44322;52.968;5.816;2022-08-03T14:42:57;14.47;;;4.90;;
58528;SDS011;44322;52.968;5.816;2022-08-03T14:45:23;11.98;;;5.00;;
58528;SDS011;44322;52.968;5.816;2022-08-03T14:47:49;10.73;;;5.03;;
58528;SDS011;44322;52.968;5.816;2022-08-03T14:50:15;10.07;;;5.38;;
58528;SDS011;44322;52.968;5.816;2022-08-03T14:52:41;18.25;;;5.88;;
58528;SDS011;44322;52.968;5.816;2022-08-03T14:55:07;10.15;;;4.65;;
58528;SDS011;44322;52.968;5.816;2022-08-03T14:57:33;12.68;;;4.95;;
58528;SDS011;44322;52.968;5.816;2022-08-03T14:59:59;12.55;;;5.32;;
58528;SDS011;44322;52.968;5.816;2022-08-03T15:02:25;16.35;;;4.50;;
58528;SDS011;44322;52.968;5.816;2022-08-03T15:07:18;16.87;;;3.80;;
58528;SDS011;44322;52.968;5.816;2022-08-03T15:09:44;15.73;;;4.35;;
58528;SDS011;44322;52.968;5.816;2022-08-03T15:12:10;11.27;;;4.22;;
58528;SDS011;44322;52.968;5.816;2022-08-03T15:14:36;14.23;;;4.68;;
58528;SDS011;44322;52.968;5.816;2022-08-03T15:17:02;8.57;;;4.60;;
58528;SDS011;44322;52.968;5.816;2022-08-03T15:19:28;19.17;;;6.37;;
58528;SDS011;44322;52.968;5.816;2022-08-03T15:21:54;12.93;;;5.68;;
58528;SDS011;44322;52.968;5.816;2022-08-03T15:24:20;12.02;;;5.90;;
58528;SDS011;44322;52.968;5.816;2022-08-03T15:26:46;12.48;;;5.63;;
58528;SDS011;44322;52.968;5.816;2022-08-03T15:29:12;18.00;;;5.43;;
58528;SDS011;44322;52.968;5.816;2022-08-03T15:31:37;12.18;;;5.32;;
58528;SDS011;44322;52.968;5.816;2022-08-03T15:34:05;13.63;;;4.57;;
58528;SDS011;44322;52.968;5.816;2022-08-03T15:36:31;17.80;;;5.50;;
58528;SDS011;44322;52.968;5.816;2022-08-03T15:38:57;12.57;;;5.20;;
58528;SDS011;44322;52.968;5.816;2022-08-03T15:41:23;12.75;;;4.30;;
58528;SDS011;44322;52.968;5.816;2022-08-03T15:43:49;10.18;;;4.00;;
58528;SDS011;44322;52.968;5.816;2022-08-03T15:46:17;13.90;;;3.72;;
58528;SDS011;44322;52.968;5.816;2022-08-03T15:48:43;12.93;;;3.45;;
58528;SDS011;44322;52.968;5.816;2022-08-03T15:51:09;8.35;;;2.90;;
58528;SDS011;44322;52.968;5.816;2022-08-03T15:53:35;11.48;;;3.03;;
58528;SDS011;44322;52.968;5.816;2022-08-03T15:56:03;14.05;;;3.30;;